createdAt,value
2022-12-16T00:02:22.501Z,106.37
2022-12-16T00:04:50.229Z,90.43
2022-12-16T00:07:18.110Z,98.33
2022-12-16T00:09:45.773Z,88.67
2022-12-16T00:12:15.003Z,90.50
2022-12-16T00:14:42.661Z,91.20
2022-12-16T00:17:10.327Z,93.70
2022-12-16T00:19:37.966Z,88.70
2022-12-16T00:22:05.631Z,91.40
2022-12-16T00:24:33.323Z,90.47
2022-12-16T00:27:01.059Z,92.23
2022-12-16T00:29:30.096Z,90.57
2022-12-16T00:31:57.828Z,87.77
2022-12-16T00:34:25.495Z,94.97
2022-12-16T00:36:53.155Z,90.73
2022-12-16T00:39:20.923Z,91.07
2022-12-16T00:41:48.658Z,85.13
2022-12-16T00:44:16.343Z,90.27
2022-12-16T00:46:45.451Z,89.57
2022-12-16T00:49:13.089Z,91.53
2022-12-16T00:51:40.706Z,89.60
2022-12-16T00:54:08.403Z,89.90
2022-12-16T00:56:36.962Z,89.27
2022-12-16T00:59:04.642Z,86.20
2022-12-16T01:01:32.546Z,88.70
2022-12-16T01:04:01.692Z,81.73
2022-12-16T01:06:29.341Z,83.20
2022-12-16T01:08:57.042Z,85.30
2022-12-16T01:11:24.718Z,82.90
2022-12-16T01:13:52.842Z,81.63
2022-12-16T01:16:23.073Z,78.37
2022-12-16T01:18:51.032Z,74.17
2022-12-16T01:21:20.024Z,72.63
2022-12-16T01:23:48.671Z,75.53
2022-12-16T01:26:17.371Z,81.90
2022-12-16T01:28:45.208Z,84.73
2022-12-16T01:31:13.209Z,89.17
2022-12-16T01:33:40.901Z,88.03
2022-12-16T01:36:09.941Z,91.63
2022-12-16T01:38:39.096Z,93.57
2022-12-16T01:41:06.928Z,88.80
2022-12-16T01:43:35.893Z,89.57
2022-12-16T01:46:06.346Z,84.03
2022-12-16T01:48:37.231Z,88.77
2022-12-16T01:51:07.829Z,97.63
2022-12-16T01:53:37.047Z,89.40
2022-12-16T01:56:06.451Z,85.37
2022-12-16T01:58:36.027Z,82.30
2022-12-16T02:01:04.590Z,86.03
2022-12-16T02:03:33.904Z,89.27
2022-12-16T02:06:02.720Z,85.27
2022-12-16T02:08:30.419Z,92.30
2022-12-16T02:11:06.491Z,98.70
2022-12-16T02:13:40.588Z,94.40
2022-12-16T02:16:16.837Z,97.53
2022-12-16T02:18:49.322Z,94.50
2022-12-16T02:21:25.118Z,93.13
2022-12-16T02:24:03.915Z,96.73
2022-12-16T02:26:50.379Z,98.37
2022-12-16T02:29:31.943Z,97.43
2022-12-16T02:32:04.919Z,101.87
2022-12-16T02:34:36.172Z,94.07
2022-12-16T02:37:10.665Z,94.87
2022-12-16T02:39:39.060Z,96.93
2022-12-16T02:42:10.663Z,97.33
2022-12-16T02:44:42.750Z,86.33
2022-12-16T02:47:11.781Z,93.57
2022-12-16T02:49:52.643Z,95.67
2022-12-16T02:52:22.856Z,93.47
2022-12-16T02:54:52.824Z,78.57
2022-12-16T02:57:28.686Z,84.23
2022-12-16T03:00:01.896Z,88.53
2022-12-16T03:02:33.171Z,89.83
2022-12-16T03:05:03.668Z,92.27
2022-12-16T03:07:32.454Z,98.00
2022-12-16T03:10:01.067Z,96.20
2022-12-16T03:12:29.099Z,95.20
2022-12-16T03:14:59.151Z,93.07
2022-12-16T03:17:28.776Z,93.10
2022-12-16T03:20:01.806Z,94.83
2022-12-16T03:22:30.518Z,86.83
2022-12-16T03:24:58.190Z,90.07
2022-12-16T03:27:28.208Z,84.37
2022-12-16T03:30:00.234Z,87.77
2022-12-16T03:32:32.630Z,89.37
2022-12-16T03:35:03.360Z,85.87
2022-12-16T03:37:33.950Z,76.13
2022-12-16T03:40:04.536Z,84.63
2022-12-16T03:42:32.389Z,83.07
2022-12-16T03:45:00.315Z,81.77
2022-12-16T03:47:29.165Z,80.50
2022-12-16T03:49:56.874Z,69.97
2022-12-16T03:52:25.970Z,68.60
2022-12-16T03:54:53.635Z,67.27
2022-12-16T03:57:21.293Z,65.90
2022-12-16T03:59:48.978Z,63.33
2022-12-16T04:02:16.720Z,66.77
2022-12-16T04:04:44.429Z,60.43
2022-12-16T04:07:24.935Z,58.53
2022-12-16T04:09:54.197Z,69.00
2022-12-16T04:12:40.611Z,64.60
2022-12-16T04:15:34.945Z,63.93
2022-12-16T04:18:27.107Z,65.07
2022-12-16T04:21:13.962Z,63.47
2022-12-16T04:24:02.558Z,65.60
2022-12-16T04:26:31.595Z,66.27
2022-12-16T04:28:59.255Z,63.30
2022-12-16T04:31:27.123Z,61.03
2022-12-16T04:34:12.449Z,61.80
2022-12-16T04:36:57.594Z,59.03
2022-12-16T04:39:42.455Z,54.97
2022-12-16T04:42:29.164Z,55.00
2022-12-16T04:45:14.246Z,49.07
2022-12-16T04:47:59.589Z,51.07
2022-12-16T04:50:44.539Z,48.03
2022-12-16T04:53:29.527Z,48.87
2022-12-16T04:56:14.946Z,49.27
2022-12-16T04:59:07.163Z,46.57
2022-12-16T05:01:53.913Z,49.73
2022-12-16T05:04:35.547Z,51.03
2022-12-16T05:07:20.455Z,52.33
2022-12-16T05:10:01.969Z,56.80
2022-12-16T05:13:01.507Z,51.43
2022-12-16T05:15:48.093Z,51.83
2022-12-16T05:18:34.499Z,52.37
2022-12-16T05:21:20.735Z,55.40
2022-12-16T05:24:06.542Z,51.73
2022-12-16T05:26:51.641Z,52.90
2022-12-16T05:29:36.989Z,53.43
2022-12-16T05:32:23.880Z,51.97
2022-12-16T05:35:09.144Z,50.30
2022-12-16T05:37:54.372Z,52.10
2022-12-16T05:40:39.422Z,49.27
2022-12-16T05:43:24.653Z,40.13
2022-12-16T05:46:09.913Z,45.40
2022-12-16T05:48:56.742Z,38.60
2022-12-16T05:51:40.914Z,39.57
2022-12-16T05:54:26.356Z,44.83
2022-12-16T05:57:11.978Z,45.23
2022-12-16T05:59:57.253Z,39.73
2022-12-16T06:02:42.660Z,37.57
2022-12-16T06:05:43.951Z,37.63
2022-12-16T06:08:28.861Z,36.00
2022-12-16T06:11:13.912Z,36.17
2022-12-16T06:13:59.434Z,36.87
2022-12-16T06:16:44.742Z,38.00
2022-12-16T06:19:29.812Z,37.77
2022-12-16T06:22:16.502Z,39.97
2022-12-16T06:25:01.527Z,40.83
2022-12-16T06:27:46.612Z,40.80
2022-12-16T06:30:31.713Z,41.17
2022-12-16T06:33:16.805Z,43.17
2022-12-16T06:36:02.030Z,43.23
2022-12-16T06:38:48.500Z,42.60
2022-12-16T06:41:33.358Z,45.80
2022-12-16T06:44:18.847Z,41.30
2022-12-16T06:47:03.875Z,44.53
2022-12-16T06:49:49.013Z,46.67
2022-12-16T06:52:33.979Z,43.53
2022-12-16T06:55:20.472Z,46.27
2022-12-16T06:58:09.905Z,42.90
2022-12-16T07:00:55.064Z,42.67
2022-12-16T07:03:40.960Z,39.77
2022-12-16T07:06:22.787Z,41.30
2022-12-16T07:09:07.795Z,38.73
2022-12-16T07:11:54.373Z,39.07
2022-12-16T07:14:40.071Z,38.20
2022-12-16T07:17:25.122Z,39.07
2022-12-16T07:20:10.039Z,39.23
2022-12-16T07:23:04.119Z,36.97
2022-12-16T07:25:54.578Z,36.60
2022-12-16T07:28:41.101Z,36.23
2022-12-16T07:31:26.135Z,39.17
2022-12-16T07:34:11.046Z,34.77
2022-12-16T07:36:56.085Z,34.23
2022-12-16T07:39:41.218Z,32.97
2022-12-16T07:42:26.168Z,32.33
2022-12-16T07:45:13.137Z,34.23
2022-12-16T07:48:05.062Z,30.60
2022-12-16T07:50:50.193Z,34.30
2022-12-16T07:53:36.651Z,34.80
2022-12-16T07:56:22.118Z,35.63
2022-12-16T07:59:07.231Z,30.27
2022-12-16T08:01:53.948Z,34.43
2022-12-16T08:04:40.360Z,32.40
2022-12-16T08:07:25.310Z,32.43
2022-12-16T08:10:10.469Z,33.23
2022-12-16T08:12:52.813Z,35.67
2022-12-16T08:15:38.463Z,36.03
2022-12-16T08:18:25.210Z,32.73
2022-12-16T08:21:10.244Z,35.53
2022-12-16T08:23:54.482Z,37.00
2022-12-16T08:26:39.764Z,35.17
2022-12-16T08:29:43.591Z,34.73
2022-12-16T08:32:29.651Z,33.53
2022-12-16T08:35:15.966Z,37.17
2022-12-16T08:38:00.944Z,34.70
2022-12-16T08:40:46.571Z,36.17
2022-12-16T08:43:32.265Z,37.43
2022-12-16T08:46:17.531Z,38.77
2022-12-16T08:49:02.594Z,40.70
2022-12-16T08:51:49.332Z,41.37
2022-12-16T08:54:34.698Z,44.87
2022-12-16T08:57:34.116Z,40.23
2022-12-16T09:00:19.375Z,41.17
2022-12-16T09:03:04.739Z,39.20
2022-12-16T09:05:50.024Z,39.87
2022-12-16T09:08:48.764Z,43.83
2022-12-16T09:11:34.100Z,41.30
2022-12-16T09:14:16.094Z,41.63
2022-12-16T09:17:01.364Z,40.63
2022-12-16T09:19:46.574Z,41.03
2022-12-16T09:22:31.826Z,40.57
2022-12-16T09:25:32.995Z,36.57
2022-12-16T09:28:18.290Z,38.87
2022-12-16T09:31:03.616Z,41.93
2022-12-16T09:33:48.769Z,38.33
2022-12-16T09:36:33.641Z,35.77
2022-12-16T09:39:18.967Z,37.70
2022-12-16T09:42:10.965Z,38.50
2022-12-16T09:45:03.549Z,34.97
2022-12-16T09:47:52.157Z,33.33
2022-12-16T09:50:38.901Z,36.80
2022-12-16T09:53:25.596Z,34.90
2022-12-16T09:56:11.352Z,35.63
2022-12-16T09:58:59.603Z,33.93
2022-12-16T10:01:45.203Z,39.83
2022-12-16T10:04:30.167Z,34.57
2022-12-16T10:07:16.963Z,27.57
2022-12-16T10:10:04.657Z,30.03
2022-12-16T10:12:53.362Z,27.63
2022-12-16T10:15:44.604Z,34.30
2022-12-16T10:18:41.450Z,35.60
2022-12-16T10:21:28.453Z,34.33
2022-12-16T10:24:17.979Z,34.53
2022-12-16T10:27:05.749Z,31.77
2022-12-16T10:29:52.761Z,30.33
2022-12-16T10:32:43.137Z,32.13
2022-12-16T10:35:35.665Z,32.20
2022-12-16T10:38:20.577Z,31.80
2022-12-16T10:41:06.347Z,29.47
2022-12-16T10:43:51.274Z,27.20
2022-12-16T10:46:38.200Z,32.93
2022-12-16T10:49:27.095Z,35.77
2022-12-16T10:52:12.128Z,27.57
2022-12-16T10:54:58.703Z,29.00
2022-12-16T10:58:01.802Z,25.47
2022-12-16T11:00:57.979Z,27.03
2022-12-16T11:03:44.244Z,23.73
2022-12-16T11:06:33.974Z,26.63
2022-12-16T11:09:32.694Z,29.70
2022-12-16T11:12:31.991Z,30.57
2022-12-16T11:15:29.089Z,28.77
2022-12-16T11:18:20.123Z,26.60
2022-12-16T11:21:10.497Z,25.80
2022-12-16T11:23:59.220Z,19.27
2022-12-16T11:26:44.423Z,20.17
2022-12-16T11:29:31.213Z,26.63
2022-12-16T11:32:18.079Z,20.10
2022-12-16T11:35:04.561Z,20.37
2022-12-16T11:37:51.047Z,21.37
2022-12-16T11:40:38.223Z,24.50
2022-12-16T11:43:24.294Z,21.97
2022-12-16T11:46:10.854Z,23.63
2022-12-16T11:48:58.493Z,22.27
2022-12-16T11:51:44.832Z,23.53
2022-12-16T11:54:34.276Z,23.93
2022-12-16T11:57:22.037Z,27.20
2022-12-16T12:00:10.555Z,19.93
2022-12-16T12:02:59.299Z,21.83
2022-12-16T12:05:46.806Z,23.60
2022-12-16T12:08:36.299Z,23.53
2022-12-16T12:11:25.606Z,22.57
2022-12-16T12:14:17.719Z,24.77
2022-12-16T12:17:10.543Z,23.80
2022-12-16T12:20:01.506Z,24.87
2022-12-16T12:22:51.769Z,23.33
2022-12-16T12:25:42.473Z,15.87
2022-12-16T12:28:31.933Z,22.90
2022-12-16T12:31:22.904Z,24.27
2022-12-16T12:34:15.459Z,23.37
2022-12-16T12:37:05.399Z,25.33
2022-12-16T12:39:52.288Z,13.87
2022-12-16T12:42:48.962Z,23.93
2022-12-16T12:45:49.663Z,22.63
2022-12-16T12:48:39.390Z,21.00
2022-12-16T12:51:27.372Z,19.50
2022-12-16T12:54:15.325Z,24.97
2022-12-16T12:57:05.986Z,22.10
2022-12-16T13:00:02.372Z,22.40
2022-12-16T13:02:49.271Z,23.40
2022-12-16T13:05:36.545Z,23.17
2022-12-16T13:08:40.383Z,20.67
2022-12-16T13:11:34.298Z,23.73
2022-12-16T13:14:27.231Z,23.10
2022-12-16T13:17:20.342Z,23.17
2022-12-16T13:20:12.712Z,22.43
2022-12-16T13:23:11.357Z,18.53
2022-12-16T13:25:58.657Z,22.13
2022-12-16T13:28:45.453Z,23.83
2022-12-16T13:31:30.974Z,23.07
2022-12-16T13:34:20.392Z,22.43
2022-12-16T13:37:07.867Z,22.37
2022-12-16T13:39:54.625Z,19.13
2022-12-16T13:42:58.342Z,19.80
2022-12-16T13:45:48.277Z,21.40
2022-12-16T13:48:52.295Z,21.80
2022-12-16T13:52:07.205Z,21.97
2022-12-16T13:54:54.984Z,21.10
2022-12-16T13:57:42.969Z,21.73
2022-12-16T14:00:36.828Z,19.53
2022-12-16T14:03:23.819Z,18.77
2022-12-16T14:06:09.405Z,21.97
2022-12-16T14:08:56.315Z,21.33
2022-12-16T14:11:44.067Z,21.73
2022-12-16T14:14:50.339Z,22.03
2022-12-16T14:17:40.246Z,22.80
2022-12-16T14:20:30.520Z,25.00
2022-12-16T14:23:47.327Z,19.90
2022-12-16T14:26:30.044Z,21.03
2022-12-16T14:29:15.157Z,23.30
2022-12-16T14:32:02.220Z,26.13
2022-12-16T14:34:48.689Z,26.80
2022-12-16T14:37:36.166Z,19.10
2022-12-16T14:40:22.582Z,23.97
2022-12-16T14:43:12.877Z,22.40
2022-12-16T14:46:06.919Z,28.27
2022-12-16T14:48:58.906Z,24.83
2022-12-16T14:51:45.403Z,28.17
2022-12-16T14:54:38.183Z,25.27
2022-12-16T14:57:23.603Z,24.33
2022-12-16T15:00:18.126Z,25.73
2022-12-16T15:03:05.239Z,21.73
2022-12-16T15:05:53.733Z,20.80
2022-12-16T15:08:41.784Z,17.73
2022-12-16T15:11:28.722Z,13.37
2022-12-16T15:14:16.901Z,18.80
2022-12-16T15:17:03.121Z,21.40
2022-12-16T15:19:50.687Z,20.37
2022-12-16T15:22:37.621Z,21.07
2022-12-16T15:25:23.028Z,16.47
2022-12-16T15:28:12.454Z,11.97
2022-12-16T15:30:58.427Z,9.37
2022-12-16T15:33:44.593Z,11.20
2022-12-16T15:36:38.115Z,7.23
2022-12-16T15:39:29.407Z,9.60
2022-12-16T15:42:14.587Z,6.63
2022-12-16T15:45:06.110Z,7.63
2022-12-16T15:47:52.597Z,6.33
2022-12-16T15:50:39.193Z,6.63
2022-12-16T15:53:34.324Z,7.03
2022-12-16T15:56:21.525Z,7.53
2022-12-16T15:59:17.772Z,7.87
2022-12-16T16:02:08.725Z,6.83
2022-12-16T16:04:59.452Z,7.63
2022-12-16T16:07:44.648Z,6.27
2022-12-16T16:10:33.689Z,7.90
2022-12-16T16:13:32.378Z,6.27
2022-12-16T16:16:17.610Z,4.60
2022-12-16T16:19:02.856Z,5.90
2022-12-16T16:21:48.477Z,6.83
2022-12-16T16:24:33.750Z,4.30
2022-12-16T16:27:21.288Z,5.90
2022-12-16T16:30:08.137Z,7.20
2022-12-16T16:32:53.169Z,5.70
2022-12-16T16:35:38.316Z,6.53
2022-12-16T16:38:23.526Z,7.93
2022-12-16T16:41:08.783Z,10.80
2022-12-16T16:43:53.939Z,8.57
2022-12-16T16:46:48.971Z,9.23
2022-12-16T16:49:38.221Z,7.40
2022-12-16T16:52:23.748Z,7.63
2022-12-16T16:55:08.559Z,10.20
2022-12-16T16:57:55.782Z,9.13
2022-12-16T17:00:42.070Z,8.77
2022-12-16T17:03:28.594Z,10.47
2022-12-16T17:06:14.003Z,10.87
2022-12-16T17:08:59.096Z,9.23
2022-12-16T17:11:44.963Z,9.10
2022-12-16T17:14:30.585Z,10.07
2022-12-16T17:17:15.714Z,10.10
2022-12-16T17:20:02.512Z,8.67
2022-12-16T17:22:47.519Z,9.03
2022-12-16T17:25:32.979Z,8.47
2022-12-16T17:28:17.972Z,8.60
2022-12-16T17:31:02.909Z,5.03
2022-12-16T17:33:48.432Z,6.50
2022-12-16T17:36:36.273Z,7.10
2022-12-16T17:39:21.859Z,9.07
2022-12-16T17:42:07.472Z,10.07
2022-12-16T17:44:52.806Z,6.43
2022-12-16T17:47:38.617Z,8.03
2022-12-16T17:50:24.229Z,6.53
2022-12-16T17:53:13.902Z,7.93
2022-12-16T17:55:59.423Z,9.53
2022-12-16T17:58:54.965Z,8.50
2022-12-16T18:01:40.531Z,7.47
2022-12-16T18:04:26.240Z,7.13
2022-12-16T18:07:11.723Z,7.70
2022-12-16T18:09:58.246Z,9.20
2022-12-16T18:12:43.411Z,9.73
2022-12-16T18:15:28.758Z,8.07
2022-12-16T18:18:13.575Z,9.47
2022-12-16T18:21:13.180Z,10.40
2022-12-16T18:23:58.418Z,9.57
2022-12-16T18:26:45.158Z,10.27
2022-12-16T18:29:30.166Z,9.43
2022-12-16T18:32:15.260Z,7.40
2022-12-16T18:35:00.422Z,8.73
2022-12-16T18:37:45.571Z,9.37
2022-12-16T18:40:30.647Z,7.97
2022-12-16T18:43:18.082Z,7.77
2022-12-16T18:46:09.942Z,11.57
2022-12-16T18:48:54.975Z,10.50
2022-12-16T18:51:40.186Z,8.47
2022-12-16T18:54:25.397Z,9.83
2022-12-16T18:57:10.514Z,7.77
2022-12-16T18:59:57.471Z,8.53
2022-12-16T19:02:42.442Z,6.63
2022-12-16T19:05:27.427Z,8.77
2022-12-16T19:08:14.461Z,7.77
2022-12-16T19:10:59.918Z,6.97
2022-12-16T19:13:45.303Z,9.83
2022-12-16T19:16:32.133Z,8.90
2022-12-16T19:19:20.139Z,7.80
2022-12-16T19:22:05.891Z,8.87
2022-12-16T19:24:50.769Z,10.20
2022-12-16T19:27:35.905Z,11.20
2022-12-16T19:30:21.326Z,10.67
2022-12-16T19:33:08.000Z,7.20
2022-12-16T19:36:14.311Z,6.47
2022-12-16T19:38:59.321Z,9.57
2022-12-16T19:41:44.248Z,11.47
2022-12-16T19:44:29.335Z,8.40
2022-12-16T19:47:14.138Z,9.13
2022-12-16T19:50:01.052Z,11.20
2022-12-16T19:52:46.001Z,10.53
2022-12-16T19:55:31.369Z,7.47
2022-12-16T19:58:16.383Z,10.57
2022-12-16T20:01:01.320Z,7.70
2022-12-16T20:03:47.020Z,10.60
2022-12-16T20:06:33.113Z,10.30
2022-12-16T20:09:18.560Z,9.60
2022-12-16T20:12:07.327Z,10.33
2022-12-16T20:14:52.223Z,8.07
2022-12-16T20:17:38.756Z,9.77
2022-12-16T20:20:24.300Z,8.17
2022-12-16T20:23:11.083Z,6.30
2022-12-16T20:25:56.514Z,6.33
2022-12-16T20:28:42.053Z,7.20
2022-12-16T20:31:27.127Z,8.37
2022-12-16T20:34:12.803Z,6.27
2022-12-16T20:36:58.319Z,9.70
2022-12-16T20:39:51.176Z,8.67
2022-12-16T20:42:41.435Z,9.67
2022-12-16T20:45:26.907Z,8.10
2022-12-16T20:48:12.228Z,10.33
2022-12-16T20:50:57.434Z,10.53
2022-12-16T20:53:42.844Z,10.20
2022-12-16T20:56:29.477Z,10.23
2022-12-16T20:59:14.583Z,10.53
2022-12-16T21:02:22.158Z,10.37
2022-12-16T21:05:04.586Z,11.00
2022-12-16T21:07:49.310Z,10.57
2022-12-16T21:10:34.229Z,10.30
2022-12-16T21:13:25.581Z,11.63
2022-12-16T21:16:10.554Z,10.63
2022-12-16T21:18:55.646Z,12.77
2022-12-16T21:21:41.775Z,12.13
2022-12-16T21:24:27.369Z,12.97
2022-12-16T21:27:14.489Z,11.70
2022-12-16T21:30:06.403Z,12.37
2022-12-16T21:32:51.496Z,12.67
2022-12-16T21:35:38.639Z,12.97
2022-12-16T21:38:26.701Z,13.67
2022-12-16T21:41:12.266Z,13.53
2022-12-16T21:43:57.235Z,13.60
2022-12-16T21:46:44.111Z,13.70
2022-12-16T21:49:29.026Z,13.27
2022-12-16T21:52:13.817Z,13.07
2022-12-16T21:54:58.789Z,11.33
2022-12-16T21:57:53.228Z,14.07
2022-12-16T22:00:39.187Z,13.23
2022-12-16T22:03:25.394Z,12.80
2022-12-16T22:06:10.396Z,14.20
2022-12-16T22:12:00.658Z,14.50
2022-12-16T22:14:45.909Z,16.43
2022-12-16T22:17:30.809Z,12.90
2022-12-16T22:20:17.416Z,16.03
2022-12-16T22:23:02.328Z,17.57
2022-12-16T22:25:47.251Z,18.43
2022-12-16T22:28:32.165Z,18.67
2022-12-16T22:31:17.029Z,15.47
2022-12-16T22:34:02.383Z,17.23
2022-12-16T22:36:49.073Z,17.23
2022-12-16T22:39:33.860Z,17.10
2022-12-16T22:42:18.809Z,17.50
2022-12-16T22:45:03.683Z,18.30
2022-12-16T22:47:49.688Z,20.03
2022-12-16T22:50:34.800Z,18.17
2022-12-16T22:53:21.324Z,20.13
2022-12-16T22:56:20.267Z,20.43
2022-12-16T22:59:05.648Z,20.00
2022-12-16T23:01:50.698Z,21.87
2022-12-16T23:04:37.189Z,19.63
2022-12-16T23:07:24.575Z,21.53
2022-12-16T23:10:11.364Z,19.53
2022-12-16T23:12:57.125Z,21.70
2022-12-16T23:15:42.690Z,21.53
2022-12-16T23:18:28.223Z,20.70
2022-12-16T23:21:13.147Z,21.90
2022-12-16T23:23:59.383Z,21.23
2022-12-16T23:26:45.794Z,20.63
2022-12-16T23:29:30.949Z,21.47
2022-12-16T23:32:16.122Z,22.40
2022-12-16T23:35:00.928Z,23.13
2022-12-16T23:37:45.889Z,23.63
2022-12-16T23:40:31.127Z,22.13
2022-12-16T23:43:17.891Z,23.07
2022-12-16T23:46:02.908Z,21.50
2022-12-16T23:48:48.090Z,21.60
2022-12-16T23:51:33.152Z,21.90
2022-12-16T23:54:18.059Z,22.70
2022-12-16T23:57:03.037Z,23.17
2022-12-16T23:59:49.720Z,19.90
